Portada
METAR-TAF:

METAR-TAF

Aeropuertos :

Selebi-Phikwe, Botsuana

latitud: 22-03-19S, longitud: 027-49-13E, altitud: 892 m

Observación

El informe se hizo hace 3 horas y 17 minutos, a las 18:00 UTC
Viento 3 kt del norte-noroeste
Temperatura 24°C
Humedad 38%
Presión 1015 hPa
Visibilidad 10 km o más
Escasas nubes a una altura de 2500 ft

METAR: FBSP 261800Z 33003KT 9999 FEW025 24/09 Q1015

Hora: 23:17 (21:17 UTC)

Pronóstico

El informe se hizo hace 9 horas y 17 minutos, a las 12:00 UTC
Pronóstico válido del 26 a las 15 UTC al 26 a las 24 UTC
Viento 9 kt del oeste-noroeste
Visibilidad 10 km o más
sin nubes por debajo de 1500 m y sin presencia de cumulonimbus.

TAF: FBSP 261200Z 2615/2624 30009KT CAVOK

Observaciones y pronósticos meteorológicos de más de 4000 aeropuertos (mensajes METAR y TAF).

Los puntos amarillos y rojos representan las estaciones disponibles.

Ponga el ratón en el punto deseado para ver el nombre de la estación.

Haga clic para ver las observaciones y los pronósticos meteorológicos.

Para cambiar el mapa : haga clic en los botones verdes con una cruz de color negro para hacer un zoom, en el botón verde con un guión para alejar o en las flechas verdes para mapas adyacentes.


METAR-TAF: